sensor_id;sensor_type;location;lat;lon;timestamp;P1;durP1;ratioP1;P2;durP2;ratioP2
72728;SDS011;60843;52.062;4.508;2023-05-16T00:00:04;16.20;;;1.77;;
72728;SDS011;60843;52.062;4.508;2023-05-16T00:02:34;11.07;;;1.48;;
72728;SDS011;60843;52.062;4.508;2023-05-16T00:05:05;7.78;;;1.27;;
72728;SDS011;60843;52.062;4.508;2023-05-16T00:09:57;9.63;;;1.25;;
72728;SDS011;60843;52.062;4.508;2023-05-16T00:12:23;4.43;;;1.00;;
72728;SDS011;60843;52.062;4.508;2023-05-16T00:14:49;4.20;;;0.90;;
72728;SDS011;60843;52.062;4.508;2023-05-16T00:17:15;7.85;;;1.00;;
72728;SDS011;60843;52.062;4.508;2023-05-16T00:19:41;10.13;;;1.70;;
72728;SDS011;60843;52.062;4.508;2023-05-16T00:22:08;9.88;;;1.73;;
72728;SDS011;60843;52.062;4.508;2023-05-16T00:24:35;7.82;;;1.00;;
72728;SDS011;60843;52.062;4.508;2023-05-16T00:27:00;4.80;;;1.63;;
72728;SDS011;60843;52.062;4.508;2023-05-16T00:29:28;10.70;;;1.30;;
72728;SDS011;60843;52.062;4.508;2023-05-16T00:31:55;8.13;;;1.00;;
72728;SDS011;60843;52.062;4.508;2023-05-16T00:34:20;9.20;;;1.65;;
72728;SDS011;60843;52.062;4.508;2023-05-16T00:36:46;6.53;;;1.08;;
72728;SDS011;60843;52.062;4.508;2023-05-16T00:39:13;9.35;;;1.48;;
72728;SDS011;60843;52.062;4.508;2023-05-16T00:41:39;6.13;;;1.47;;
72728;SDS011;60843;52.062;4.508;2023-05-16T00:44:04;10.13;;;1.85;;
72728;SDS011;60843;52.062;4.508;2023-05-16T00:46:30;7.80;;;1.20;;
72728;SDS011;60843;52.062;4.508;2023-05-16T00:48:55;3.67;;;0.97;;
72728;SDS011;60843;52.062;4.508;2023-05-16T00:51:21;11.60;;;1.70;;
72728;SDS011;60843;52.062;4.508;2023-05-16T00:53:46;10.70;;;1.70;;
72728;SDS011;60843;52.062;4.508;2023-05-16T00:56:12;7.28;;;1.17;;
72728;SDS011;60843;52.062;4.508;2023-05-16T00:58:37;6.93;;;0.97;;
72728;SDS011;60843;52.062;4.508;2023-05-16T01:01:02;13.10;;;1.80;;
72728;SDS011;60843;52.062;4.508;2023-05-16T01:03:28;7.95;;;0.85;;
72728;SDS011;60843;52.062;4.508;2023-05-16T01:05:54;7.32;;;1.10;;
72728;SDS011;60843;52.062;4.508;2023-05-16T01:08:20;9.98;;;2.25;;
72728;SDS011;60843;52.062;4.508;2023-05-16T01:10:49;7.75;;;1.58;;
72728;SDS011;60843;52.062;4.508;2023-05-16T01:16:12;9.68;;;1.40;;
72728;SDS011;60843;52.062;4.508;2023-05-16T01:18:41;5.80;;;1.33;;
72728;SDS011;60843;52.062;4.508;2023-05-16T01:21:15;8.20;;;1.35;;
72728;SDS011;60843;52.062;4.508;2023-05-16T01:23:50;3.92;;;0.93;;
72728;SDS011;60843;52.062;4.508;2023-05-16T01:26:24;5.25;;;0.93;;
72728;SDS011;60843;52.062;4.508;2023-05-16T01:28:51;10.00;;;1.52;;
72728;SDS011;60843;52.062;4.508;2023-05-16T01:31:17;11.15;;;1.92;;
72728;SDS011;60843;52.062;4.508;2023-05-16T01:33:43;3.20;;;1.25;;
72728;SDS011;60843;52.062;4.508;2023-05-16T01:36:23;11.60;;;1.20;;
72728;SDS011;60843;52.062;4.508;2023-05-16T01:44:35;6.45;;;1.00;;
72728;SDS011;60843;52.062;4.508;2023-05-16T01:47:07;15.23;;;1.55;;
72728;SDS011;60843;52.062;4.508;2023-05-16T01:49:56;7.63;;;1.35;;
72728;SDS011;60843;52.062;4.508;2023-05-16T01:52:33;7.05;;;1.08;;
72728;SDS011;60843;52.062;4.508;2023-05-16T01:55:02;6.28;;;0.80;;
72728;SDS011;60843;52.062;4.508;2023-05-16T01:57:29;5.50;;;1.00;;
72728;SDS011;60843;52.062;4.508;2023-05-16T01:59:55;9.93;;;1.05;;
72728;SDS011;60843;52.062;4.508;2023-05-16T02:02:21;3.88;;;1.02;;
72728;SDS011;60843;52.062;4.508;2023-05-16T02:04:47;5.47;;;1.07;;
72728;SDS011;60843;52.062;4.508;2023-05-16T02:07:12;8.67;;;1.70;;
72728;SDS011;60843;52.062;4.508;2023-05-16T02:09:40;8.75;;;1.20;;
72728;SDS011;60843;52.062;4.508;2023-05-16T02:12:05;7.47;;;1.03;;
72728;SDS011;60843;52.062;4.508;2023-05-16T02:14:31;6.25;;;1.25;;
72728;SDS011;60843;52.062;4.508;2023-05-16T02:16:57;11.90;;;1.30;;
72728;SDS011;60843;52.062;4.508;2023-05-16T02:19:22;6.50;;;1.15;;
72728;SDS011;60843;52.062;4.508;2023-05-16T02:21:47;8.85;;;1.50;;
72728;SDS011;60843;52.062;4.508;2023-05-16T02:24:13;9.55;;;1.50;;
72728;SDS011;60843;52.062;4.508;2023-05-16T02:26:39;11.32;;;1.10;;
72728;SDS011;60843;52.062;4.508;2023-05-16T02:29:05;8.57;;;1.15;;
72728;SDS011;60843;52.062;4.508;2023-05-16T02:31:30;9.63;;;1.17;;
72728;SDS011;60843;52.062;4.508;2023-05-16T02:33:58;3.85;;;1.30;;
72728;SDS011;60843;52.062;4.508;2023-05-16T02:36:24;8.20;;;1.63;;
72728;SDS011;60843;52.062;4.508;2023-05-16T02:38:49;10.48;;;1.38;;
72728;SDS011;60843;52.062;4.508;2023-05-16T02:41:15;8.87;;;1.33;;
72728;SDS011;60843;52.062;4.508;2023-05-16T02:43:40;5.13;;;1.43;;
72728;SDS011;60843;52.062;4.508;2023-05-16T02:46:22;11.88;;;1.65;;
72728;SDS011;60843;52.062;4.508;2023-05-16T02:48:49;9.65;;;1.77;;
72728;SDS011;60843;52.062;4.508;2023-05-16T02:51:15;7.95;;;1.10;;
72728;SDS011;60843;52.062;4.508;2023-05-16T02:53:40;6.63;;;0.90;;
72728;SDS011;60843;52.062;4.508;2023-05-16T02:56:05;9.13;;;1.27;;
72728;SDS011;60843;52.062;4.508;2023-05-16T02:58:32;6.43;;;1.73;;
72728;SDS011;60843;52.062;4.508;2023-05-16T03:00:58;10.75;;;1.67;;
72728;SDS011;60843;52.062;4.508;2023-05-16T03:03:23;5.82;;;0.93;;
72728;SDS011;60843;52.062;4.508;2023-05-16T03:05:49;4.97;;;1.13;;
72728;SDS011;60843;52.062;4.508;2023-05-16T03:08:15;8.43;;;1.25;;
72728;SDS011;60843;52.062;4.508;2023-05-16T03:10:40;8.57;;;1.33;;
72728;SDS011;60843;52.062;4.508;2023-05-16T03:13:05;6.93;;;1.20;;
72728;SDS011;60843;52.062;4.508;2023-05-16T03:15:31;8.20;;;1.43;;
72728;SDS011;60843;52.062;4.508;2023-05-16T03:17:56;10.95;;;1.23;;
72728;SDS011;60843;52.062;4.508;2023-05-16T03:20:22;9.90;;;1.10;;
72728;SDS011;60843;52.062;4.508;2023-05-16T03:22:47;8.83;;;1.53;;
72728;SDS011;60843;52.062;4.508;2023-05-16T03:25:14;7.07;;;1.65;;
72728;SDS011;60843;52.062;4.508;2023-05-16T03:27:39;7.63;;;1.27;;
72728;SDS011;60843;52.062;4.508;2023-05-16T03:30:05;9.20;;;1.70;;
72728;SDS011;60843;52.062;4.508;2023-05-16T03:32:31;10.18;;;1.20;;
72728;SDS011;60843;52.062;4.508;2023-05-16T03:34:57;6.00;;;1.10;;
72728;SDS011;60843;52.062;4.508;2023-05-16T03:37:22;12.70;;;1.27;;
72728;SDS011;60843;52.062;4.508;2023-05-16T03:39:48;7.43;;;1.25;;
72728;SDS011;60843;52.062;4.508;2023-05-16T03:42:13;6.93;;;1.27;;
72728;SDS011;60843;52.062;4.508;2023-05-16T03:44:38;8.10;;;1.43;;
72728;SDS011;60843;52.062;4.508;2023-05-16T03:47:03;4.27;;;0.70;;
72728;SDS011;60843;52.062;4.508;2023-05-16T03:51:57;6.68;;;1.20;;
72728;SDS011;60843;52.062;4.508;2023-05-16T03:54:22;7.17;;;1.10;;
72728;SDS011;60843;52.062;4.508;2023-05-16T03:56:48;3.80;;;1.00;;
72728;SDS011;60843;52.062;4.508;2023-05-16T03:59:13;7.35;;;0.70;;
72728;SDS011;60843;52.062;4.508;2023-05-16T04:01:39;12.48;;;1.08;;
72728;SDS011;60843;52.062;4.508;2023-05-16T04:04:04;9.00;;;1.10;;
72728;SDS011;60843;52.062;4.508;2023-05-16T04:06:29;9.53;;;1.33;;
72728;SDS011;60843;52.062;4.508;2023-05-16T04:08:56;4.65;;;0.90;;
72728;SDS011;60843;52.062;4.508;2023-05-16T04:11:22;8.23;;;1.02;;
72728;SDS011;60843;52.062;4.508;2023-05-16T04:13:48;2.88;;;0.65;;
72728;SDS011;60843;52.062;4.508;2023-05-16T04:16:15;5.95;;;1.00;;
72728;SDS011;60843;52.062;4.508;2023-05-16T04:18:40;1.40;;;0.57;;
72728;SDS011;60843;52.062;4.508;2023-05-16T04:21:05;6.17;;;1.00;;
72728;SDS011;60843;52.062;4.508;2023-05-16T04:23:31;5.03;;;0.90;;
72728;SDS011;60843;52.062;4.508;2023-05-16T04:26:00;5.73;;;0.80;;
72728;SDS011;60843;52.062;4.508;2023-05-16T04:28:25;5.40;;;0.85;;
72728;SDS011;60843;52.062;4.508;2023-05-16T04:30:51;4.60;;;0.70;;
72728;SDS011;60843;52.062;4.508;2023-05-16T04:33:17;8.77;;;0.77;;
72728;SDS011;60843;52.062;4.508;2023-05-16T04:35:42;7.73;;;0.80;;
72728;SDS011;60843;52.062;4.508;2023-05-16T04:38:08;6.97;;;0.93;;
72728;SDS011;60843;52.062;4.508;2023-05-16T04:40:33;2.97;;;1.10;;
72728;SDS011;60843;52.062;4.508;2023-05-16T04:42:59;4.75;;;0.88;;
72728;SDS011;60843;52.062;4.508;2023-05-16T04:45:24;5.30;;;1.25;;
72728;SDS011;60843;52.062;4.508;2023-05-16T04:47:51;3.72;;;0.65;;
72728;SDS011;60843;52.062;4.508;2023-05-16T04:50:17;6.00;;;0.85;;
72728;SDS011;60843;52.062;4.508;2023-05-16T04:52:42;4.72;;;1.02;;
72728;SDS011;60843;52.062;4.508;2023-05-16T04:55:08;6.03;;;0.90;;
72728;SDS011;60843;52.062;4.508;2023-05-16T04:57:34;3.92;;;0.88;;
72728;SDS011;60843;52.062;4.508;2023-05-16T04:59:59;5.10;;;0.97;;
72728;SDS011;60843;52.062;4.508;2023-05-16T05:02:25;2.53;;;0.63;;
72728;SDS011;60843;52.062;4.508;2023-05-16T05:04:51;9.00;;;1.15;;
72728;SDS011;60843;52.062;4.508;2023-05-16T05:07:17;4.72;;;0.70;;
72728;SDS011;60843;52.062;4.508;2023-05-16T05:09:43;3.80;;;0.90;;
72728;SDS011;60843;52.062;4.508;2023-05-16T05:12:08;7.68;;;0.60;;
72728;SDS011;60843;52.062;4.508;2023-05-16T05:14:33;5.73;;;0.70;;
72728;SDS011;60843;52.062;4.508;2023-05-16T05:16:59;5.47;;;0.77;;
72728;SDS011;60843;52.062;4.508;2023-05-16T05:19:25;2.63;;;0.93;;
72728;SDS011;60843;52.062;4.508;2023-05-16T05:21:50;4.67;;;0.57;;
72728;SDS011;60843;52.062;4.508;2023-05-16T05:24:16;9.20;;;0.80;;
72728;SDS011;60843;52.062;4.508;2023-05-16T05:26:41;4.47;;;0.90;;
72728;SDS011;60843;52.062;4.508;2023-05-16T05:29:06;3.07;;;0.47;;
72728;SDS011;60843;52.062;4.508;2023-05-16T05:31:32;5.68;;;0.70;;
72728;SDS011;60843;52.062;4.508;2023-05-16T05:33:58;5.85;;;0.60;;
72728;SDS011;60843;52.062;4.508;2023-05-16T05:36:24;4.45;;;0.77;;
72728;SDS011;60843;52.062;4.508;2023-05-16T05:38:49;4.28;;;0.43;;
72728;SDS011;60843;52.062;4.508;2023-05-16T05:41:15;5.60;;;0.90;;
72728;SDS011;60843;52.062;4.508;2023-05-16T05:43:40;5.00;;;0.70;;
72728;SDS011;60843;52.062;4.508;2023-05-16T05:46:06;2.43;;;0.60;;
72728;SDS011;60843;52.062;4.508;2023-05-16T05:48:31;0.30;;;0.30;;
72728;SDS011;60843;52.062;4.508;2023-05-16T05:50:56;2.45;;;0.93;;
72728;SDS011;60843;52.062;4.508;2023-05-16T05:53:23;3.10;;;0.60;;
72728;SDS011;60843;52.062;4.508;2023-05-16T05:55:48;7.68;;;0.90;;
72728;SDS011;60843;52.062;4.508;2023-05-16T05:58:14;4.17;;;0.90;;
72728;SDS011;60843;52.062;4.508;2023-05-16T06:00:39;4.43;;;0.60;;
72728;SDS011;60843;52.062;4.508;2023-05-16T06:03:04;6.37;;;0.90;;
72728;SDS011;60843;52.062;4.508;2023-05-16T06:05:30;7.93;;;0.90;;
72728;SDS011;60843;52.062;4.508;2023-05-16T06:07:55;5.27;;;1.03;;
72728;SDS011;60843;52.062;4.508;2023-05-16T06:10:20;7.87;;;0.80;;
72728;SDS011;60843;52.062;4.508;2023-05-16T06:12:46;4.63;;;0.60;;
72728;SDS011;60843;52.062;4.508;2023-05-16T06:15:11;3.85;;;0.70;;
72728;SDS011;60843;52.062;4.508;2023-05-16T06:17:37;1.48;;;0.35;;
72728;SDS011;60843;52.062;4.508;2023-05-16T06:20:02;3.90;;;0.80;;
72728;SDS011;60843;52.062;4.508;2023-05-16T06:22:28;2.33;;;0.57;;
72728;SDS011;60843;52.062;4.508;2023-05-16T06:24:54;6.20;;;1.00;;
72728;SDS011;60843;52.062;4.508;2023-05-16T06:27:19;2.83;;;0.77;;
72728;SDS011;60843;52.062;4.508;2023-05-16T06:29:45;5.27;;;0.53;;
72728;SDS011;60843;52.062;4.508;2023-05-16T06:32:10;4.20;;;0.80;;
72728;SDS011;60843;52.062;4.508;2023-05-16T06:34:36;6.10;;;0.50;;
72728;SDS011;60843;52.062;4.508;2023-05-16T06:37:01;1.80;;;0.45;;
72728;SDS011;60843;52.062;4.508;2023-05-16T06:39:27;5.68;;;0.60;;
72728;SDS011;60843;52.062;4.508;2023-05-16T06:41:53;7.45;;;0.85;;
72728;SDS011;60843;52.062;4.508;2023-05-16T06:44:18;6.63;;;0.80;;
72728;SDS011;60843;52.062;4.508;2023-05-16T06:46:43;5.50;;;0.95;;
72728;SDS011;60843;52.062;4.508;2023-05-16T06:49:09;5.78;;;0.80;;
72728;SDS011;60843;52.062;4.508;2023-05-16T06:51:34;3.35;;;0.70;;
72728;SDS011;60843;52.062;4.508;2023-05-16T06:54:00;4.97;;;0.70;;
72728;SDS011;60843;52.062;4.508;2023-05-16T06:56:25;5.97;;;0.60;;
72728;SDS011;60843;52.062;4.508;2023-05-16T06:58:52;6.80;;;0.93;;
72728;SDS011;60843;52.062;4.508;2023-05-16T07:01:17;1.87;;;0.40;;
72728;SDS011;60843;52.062;4.508;2023-05-16T07:03:43;1.57;;;0.40;;
72728;SDS011;60843;52.062;4.508;2023-05-16T07:06:08;0.87;;;0.37;;
72728;SDS011;60843;52.062;4.508;2023-05-16T07:08:33;6.47;;;0.52;;
72728;SDS011;60843;52.062;4.508;2023-05-16T07:11:01;2.85;;;0.57;;
72728;SDS011;60843;52.062;4.508;2023-05-16T07:13:26;1.90;;;0.52;;
72728;SDS011;60843;52.062;4.508;2023-05-16T07:15:51;2.13;;;0.30;;
72728;SDS011;60843;52.062;4.508;2023-05-16T07:18:17;4.32;;;0.50;;
72728;SDS011;60843;52.062;4.508;2023-05-16T07:20:42;1.80;;;0.73;;
72728;SDS011;60843;52.062;4.508;2023-05-16T07:23:07;4.20;;;0.67;;
72728;SDS011;60843;52.062;4.508;2023-05-16T07:25:33;4.10;;;1.10;;
72728;SDS011;60843;52.062;4.508;2023-05-16T07:27:58;4.22;;;0.80;;
72728;SDS011;60843;52.062;4.508;2023-05-16T07:30:24;1.20;;;0.57;;
72728;SDS011;60843;52.062;4.508;2023-05-16T07:32:50;4.78;;;0.68;;
72728;SDS011;60843;52.062;4.508;2023-05-16T07:35:15;1.90;;;0.50;;
72728;SDS011;60843;52.062;4.508;2023-05-16T07:37:41;3.77;;;0.50;;
72728;SDS011;60843;52.062;4.508;2023-05-16T07:40:07;1.38;;;0.50;;
72728;SDS011;60843;52.062;4.508;2023-05-16T07:42:33;4.65;;;1.08;;
72728;SDS011;60843;52.062;4.508;2023-05-16T07:44:59;2.08;;;0.60;;
72728;SDS011;60843;52.062;4.508;2023-05-16T07:47:26;2.65;;;0.80;;
72728;SDS011;60843;52.062;4.508;2023-05-16T07:49:51;4.80;;;0.85;;
72728;SDS011;60843;52.062;4.508;2023-05-16T07:52:16;3.80;;;0.60;;
72728;SDS011;60843;52.062;4.508;2023-05-16T07:54:42;4.10;;;0.63;;
72728;SDS011;60843;52.062;4.508;2023-05-16T07:57:07;2.67;;;0.83;;
72728;SDS011;60843;52.062;4.508;2023-05-16T07:59:33;4.32;;;0.70;;
72728;SDS011;60843;52.062;4.508;2023-05-16T08:01:58;3.92;;;0.70;;
72728;SDS011;60843;52.062;4.508;2023-05-16T08:04:25;4.80;;;0.67;;
72728;SDS011;60843;52.062;4.508;2023-05-16T08:06:51;5.68;;;0.52;;
72728;SDS011;60843;52.062;4.508;2023-05-16T08:09:16;1.93;;;0.40;;
72728;SDS011;60843;52.062;4.508;2023-05-16T08:11:41;3.80;;;0.90;;
72728;SDS011;60843;52.062;4.508;2023-05-16T08:14:09;6.05;;;0.63;;
72728;SDS011;60843;52.062;4.508;2023-05-16T08:16:35;6.90;;;0.77;;
72728;SDS011;60843;52.062;4.508;2023-05-16T08:19:00;4.95;;;0.70;;
72728;SDS011;60843;52.062;4.508;2023-05-16T08:21:26;0.97;;;0.47;;
72728;SDS011;60843;52.062;4.508;2023-05-16T08:23:51;2.53;;;0.70;;
72728;SDS011;60843;52.062;4.508;2023-05-16T08:26:16;4.40;;;0.73;;
72728;SDS011;60843;52.062;4.508;2023-05-16T08:28:42;0.82;;;0.30;;
72728;SDS011;60843;52.062;4.508;2023-05-16T08:31:07;6.20;;;0.70;;
72728;SDS011;60843;52.062;4.508;2023-05-16T08:33:33;5.80;;;0.63;;
72728;SDS011;60843;52.062;4.508;2023-05-16T08:35:58;3.58;;;0.73;;
72728;SDS011;60843;52.062;4.508;2023-05-16T08:38:24;6.28;;;0.60;;
72728;SDS011;60843;52.062;4.508;2023-05-16T08:40:50;2.43;;;0.40;;
72728;SDS011;60843;52.062;4.508;2023-05-16T08:43:15;2.20;;;0.30;;
72728;SDS011;60843;52.062;4.508;2023-05-16T08:45:40;1.48;;;0.47;;
72728;SDS011;60843;52.062;4.508;2023-05-16T08:48:06;2.50;;;0.47;;
72728;SDS011;60843;52.062;4.508;2023-05-16T08:50:34;4.47;;;1.05;;
72728;SDS011;60843;52.062;4.508;2023-05-16T08:53:02;4.55;;;1.27;;
72728;SDS011;60843;52.062;4.508;2023-05-16T08:55:31;7.10;;;0.82;;
72728;SDS011;60843;52.062;4.508;2023-05-16T08:57:56;0.82;;;0.30;;
72728;SDS011;60843;52.062;4.508;2023-05-16T09:00:22;5.32;;;1.40;;
72728;SDS011;60843;52.062;4.508;2023-05-16T09:02:48;4.82;;;0.70;;
72728;SDS011;60843;52.062;4.508;2023-05-16T09:05:14;2.08;;;0.50;;
72728;SDS011;60843;52.062;4.508;2023-05-16T09:07:41;0.90;;;0.30;;
72728;SDS011;60843;52.062;4.508;2023-05-16T09:10:07;0.65;;;0.25;;
72728;SDS011;60843;52.062;4.508;2023-05-16T09:12:33;4.10;;;0.60;;
72728;SDS011;60843;52.062;4.508;2023-05-16T09:15:00;7.05;;;0.52;;
72728;SDS011;60843;52.062;4.508;2023-05-16T09:17:28;4.50;;;0.75;;
72728;SDS011;60843;52.062;4.508;2023-05-16T09:20:12;5.97;;;1.08;;
72728;SDS011;60843;52.062;4.508;2023-05-16T09:22:39;0.85;;;0.30;;
72728;SDS011;60843;52.062;4.508;2023-05-16T09:25:05;1.63;;;0.88;;
72728;SDS011;60843;52.062;4.508;2023-05-16T09:27:31;2.33;;;0.50;;
72728;SDS011;60843;52.062;4.508;2023-05-16T09:29:56;2.03;;;0.50;;
72728;SDS011;60843;52.062;4.508;2023-05-16T09:32:22;1.63;;;0.32;;
72728;SDS011;60843;52.062;4.508;2023-05-16T09:34:48;3.40;;;0.47;;
72728;SDS011;60843;52.062;4.508;2023-05-16T09:37:15;3.90;;;0.98;;
72728;SDS011;60843;52.062;4.508;2023-05-16T09:39:45;2.42;;;0.70;;
72728;SDS011;60843;52.062;4.508;2023-05-16T09:42:12;2.40;;;0.32;;
72728;SDS011;60843;52.062;4.508;2023-05-16T09:44:37;4.43;;;0.57;;
72728;SDS011;60843;52.062;4.508;2023-05-16T09:47:03;1.55;;;0.30;;
72728;SDS011;60843;52.062;4.508;2023-05-16T09:49:30;3.58;;;0.82;;
72728;SDS011;60843;52.062;4.508;2023-05-16T09:51:58;4.63;;;1.08;;
72728;SDS011;60843;52.062;4.508;2023-05-16T09:54:31;1.88;;;0.60;;
72728;SDS011;60843;52.062;4.508;2023-05-16T09:56:57;3.90;;;0.60;;
72728;SDS011;60843;52.062;4.508;2023-05-16T09:59:23;4.55;;;0.68;;
72728;SDS011;60843;52.062;4.508;2023-05-16T10:01:48;2.13;;;0.60;;
72728;SDS011;60843;52.062;4.508;2023-05-16T10:04:16;2.92;;;0.57;;
72728;SDS011;60843;52.062;4.508;2023-05-16T10:06:41;5.25;;;0.70;;
72728;SDS011;60843;52.062;4.508;2023-05-16T10:09:09;1.33;;;0.50;;
72728;SDS011;60843;52.062;4.508;2023-05-16T10:11:35;8.80;;;1.00;;
72728;SDS011;60843;52.062;4.508;2023-05-16T10:14:02;4.85;;;0.82;;
72728;SDS011;60843;52.062;4.508;2023-05-16T10:16:29;2.05;;;0.50;;
72728;SDS011;60843;52.062;4.508;2023-05-16T10:18:55;2.97;;;0.55;;
72728;SDS011;60843;52.062;4.508;2023-05-16T10:21:21;1.45;;;0.30;;
72728;SDS011;60843;52.062;4.508;2023-05-16T10:23:49;6.35;;;0.80;;
72728;SDS011;60843;52.062;4.508;2023-05-16T10:26:15;3.70;;;0.60;;
72728;SDS011;60843;52.062;4.508;2023-05-16T10:28:41;5.32;;;1.35;;
72728;SDS011;60843;52.062;4.508;2023-05-16T10:31:07;1.42;;;0.45;;
72728;SDS011;60843;52.062;4.508;2023-05-16T10:33:34;2.22;;;0.77;;
72728;SDS011;60843;52.062;4.508;2023-05-16T10:36:00;3.15;;;0.50;;
72728;SDS011;60843;52.062;4.508;2023-05-16T10:38:26;1.38;;;0.43;;
72728;SDS011;60843;52.062;4.508;2023-05-16T10:40:52;4.63;;;0.85;;
72728;SDS011;60843;52.062;4.508;2023-05-16T10:43:24;4.65;;;0.57;;
72728;SDS011;60843;52.062;4.508;2023-05-16T10:45:54;4.18;;;0.73;;
72728;SDS011;60843;52.062;4.508;2023-05-16T10:48:27;4.65;;;0.60;;
72728;SDS011;60843;52.062;4.508;2023-05-16T10:50:56;6.25;;;0.80;;
72728;SDS011;60843;52.062;4.508;2023-05-16T11:06:23;4.30;;;0.70;;
72728;SDS011;60843;52.062;4.508;2023-05-16T11:09:40;2.10;;;0.43;;
72728;SDS011;60843;52.062;4.508;2023-05-16T11:11:43;0.73;;;0.32;;
72728;SDS011;60843;52.062;4.508;2023-05-16T11:14:21;4.72;;;0.52;;
72728;SDS011;60843;52.062;4.508;2023-05-16T11:17:11;1.63;;;0.30;;
72728;SDS011;60843;52.062;4.508;2023-05-16T11:22:11;4.13;;;0.60;;
72728;SDS011;60843;52.062;4.508;2023-05-16T11:24:37;3.63;;;0.30;;
72728;SDS011;60843;52.062;4.508;2023-05-16T11:27:03;1.13;;;0.40;;
72728;SDS011;60843;52.062;4.508;2023-05-16T11:29:35;3.85;;;0.60;;
72728;SDS011;60843;52.062;4.508;2023-05-16T11:32:04;1.88;;;0.22;;
72728;SDS011;60843;52.062;4.508;2023-05-16T11:34:31;2.05;;;1.02;;
72728;SDS011;60843;52.062;4.508;2023-05-16T11:37:01;2.42;;;0.43;;
72728;SDS011;60843;52.062;4.508;2023-05-16T11:39:28;3.92;;;0.55;;
72728;SDS011;60843;52.062;4.508;2023-05-16T11:41:54;0.98;;;0.43;;
72728;SDS011;60843;52.062;4.508;2023-05-16T11:44:20;2.10;;;0.40;;
72728;SDS011;60843;52.062;4.508;2023-05-16T11:46:45;6.33;;;1.30;;
72728;SDS011;60843;52.062;4.508;2023-05-16T11:49:11;3.20;;;0.40;;
72728;SDS011;60843;52.062;4.508;2023-05-16T11:51:40;3.40;;;0.40;;
72728;SDS011;60843;52.062;4.508;2023-05-16T11:54:10;3.88;;;0.60;;
72728;SDS011;60843;52.062;4.508;2023-05-16T11:56:38;4.95;;;0.63;;
72728;SDS011;60843;52.062;4.508;2023-05-16T11:59:03;3.22;;;0.60;;
72728;SDS011;60843;52.062;4.508;2023-05-16T12:01:32;3.50;;;0.65;;
72728;SDS011;60843;52.062;4.508;2023-05-16T12:03:59;1.92;;;0.50;;
72728;SDS011;60843;52.062;4.508;2023-05-16T12:06:25;2.50;;;0.50;;
72728;SDS011;60843;52.062;4.508;2023-05-16T12:08:51;4.88;;;0.50;;
72728;SDS011;60843;52.062;4.508;2023-05-16T12:11:16;5.60;;;0.60;;
72728;SDS011;60843;52.062;4.508;2023-05-16T12:13:42;3.65;;;0.50;;
72728;SDS011;60843;52.062;4.508;2023-05-16T12:16:08;1.85;;;0.30;;
72728;SDS011;60843;52.062;4.508;2023-05-16T12:18:34;4.25;;;0.70;;
72728;SDS011;60843;52.062;4.508;2023-05-16T12:21:02;4.75;;;0.47;;
72728;SDS011;60843;52.062;4.508;2023-05-16T12:23:28;4.72;;;0.63;;
72728;SDS011;60843;52.062;4.508;2023-05-16T12:25:55;2.10;;;0.45;;
72728;SDS011;60843;52.062;4.508;2023-05-16T12:28:21;3.03;;;0.68;;
72728;SDS011;60843;52.062;4.508;2023-05-16T12:30:47;2.30;;;0.50;;
72728;SDS011;60843;52.062;4.508;2023-05-16T12:33:13;0.93;;;0.30;;
72728;SDS011;60843;52.062;4.508;2023-05-16T12:35:42;4.03;;;0.60;;
72728;SDS011;60843;52.062;4.508;2023-05-16T12:38:10;2.90;;;0.70;;
72728;SDS011;60843;52.062;4.508;2023-05-16T12:40:38;2.67;;;1.15;;
72728;SDS011;60843;52.062;4.508;2023-05-16T12:43:13;4.30;;;0.60;;
72728;SDS011;60843;52.062;4.508;2023-05-16T12:45:39;7.20;;;0.80;;
72728;SDS011;60843;52.062;4.508;2023-05-16T12:48:10;2.45;;;0.40;;
72728;SDS011;60843;52.062;4.508;2023-05-16T12:50:37;4.47;;;0.32;;
72728;SDS011;60843;52.062;4.508;2023-05-16T12:53:03;1.85;;;0.40;;
72728;SDS011;60843;52.062;4.508;2023-05-16T12:55:28;3.23;;;0.47;;
72728;SDS011;60843;52.062;4.508;2023-05-16T12:57:54;2.10;;;0.40;;
72728;SDS011;60843;52.062;4.508;2023-05-16T13:00:19;2.05;;;0.30;;
72728;SDS011;60843;52.062;4.508;2023-05-16T13:02:45;1.38;;;0.30;;
72728;SDS011;60843;52.062;4.508;2023-05-16T13:05:12;4.47;;;0.45;;
72728;SDS011;60843;52.062;4.508;2023-05-16T13:07:38;3.13;;;0.70;;
72728;SDS011;60843;52.062;4.508;2023-05-16T13:10:08;0.68;;;0.45;;
72728;SDS011;60843;52.062;4.508;2023-05-16T13:12:35;4.22;;;0.55;;
72728;SDS011;60843;52.062;4.508;2023-05-16T13:15:04;6.18;;;0.70;;
72728;SDS011;60843;52.062;4.508;2023-05-16T13:17:31;1.58;;;0.70;;
72728;SDS011;60843;52.062;4.508;2023-05-16T13:20:00;4.47;;;0.57;;
72728;SDS011;60843;52.062;4.508;2023-05-16T13:22:26;3.40;;;1.05;;
72728;SDS011;60843;52.062;4.508;2023-05-16T13:24:53;2.00;;;0.53;;
72728;SDS011;60843;52.062;4.508;2023-05-16T13:27:18;1.90;;;0.50;;
72728;SDS011;60843;52.062;4.508;2023-05-16T13:29:43;1.55;;;0.45;;
72728;SDS011;60843;52.062;4.508;2023-05-16T13:32:09;3.83;;;0.80;;
72728;SDS011;60843;52.062;4.508;2023-05-16T13:34:34;1.47;;;0.50;;
72728;SDS011;60843;52.062;4.508;2023-05-16T13:36:59;0.75;;;0.30;;
72728;SDS011;60843;52.062;4.508;2023-05-16T13:39:25;1.30;;;0.50;;
72728;SDS011;60843;52.062;4.508;2023-05-16T13:41:50;1.43;;;0.57;;
72728;SDS011;60843;52.062;4.508;2023-05-16T13:44:17;4.70;;;0.60;;
72728;SDS011;60843;52.062;4.508;2023-05-16T13:46:43;2.40;;;0.38;;
72728;SDS011;60843;52.062;4.508;2023-05-16T13:49:09;2.92;;;0.50;;
72728;SDS011;60843;52.062;4.508;2023-05-16T13:51:34;5.03;;;0.60;;
72728;SDS011;60843;52.062;4.508;2023-05-16T13:53:59;1.47;;;0.30;;
72728;SDS011;60843;52.062;4.508;2023-05-16T13:56:25;1.00;;;0.20;;
72728;SDS011;60843;52.062;4.508;2023-05-16T13:58:50;0.82;;;0.20;;
72728;SDS011;60843;52.062;4.508;2023-05-16T14:01:16;2.42;;;0.40;;
72728;SDS011;60843;52.062;4.508;2023-05-16T14:03:41;4.10;;;0.52;;
72728;SDS011;60843;52.062;4.508;2023-05-16T14:06:07;5.22;;;0.80;;
72728;SDS011;60843;52.062;4.508;2023-05-16T14:08:32;1.67;;;0.53;;
72728;SDS011;60843;52.062;4.508;2023-05-16T14:10:58;3.15;;;0.60;;
72728;SDS011;60843;52.062;4.508;2023-05-16T14:13:23;2.30;;;0.50;;
72728;SDS011;60843;52.062;4.508;2023-05-16T14:15:49;4.07;;;0.60;;
72728;SDS011;60843;52.062;4.508;2023-05-16T14:18:15;1.30;;;0.45;;
72728;SDS011;60843;52.062;4.508;2023-05-16T14:20:40;5.47;;;0.70;;
72728;SDS011;60843;52.062;4.508;2023-05-16T14:23:06;2.00;;;0.70;;
72728;SDS011;60843;52.062;4.508;2023-05-16T14:25:32;1.20;;;0.20;;
72728;SDS011;60843;52.062;4.508;2023-05-16T14:27:58;5.60;;;0.50;;
72728;SDS011;60843;52.062;4.508;2023-05-16T14:30:23;2.87;;;0.60;;
72728;SDS011;60843;52.062;4.508;2023-05-16T14:32:48;2.67;;;0.73;;
72728;SDS011;60843;52.062;4.508;2023-05-16T14:35:14;2.33;;;0.45;;
72728;SDS011;60843;52.062;4.508;2023-05-16T14:37:39;4.55;;;1.15;;
72728;SDS011;60843;52.062;4.508;2023-05-16T14:40:05;1.00;;;0.37;;
72728;SDS011;60843;52.062;4.508;2023-05-16T14:42:32;1.80;;;0.32;;
72728;SDS011;60843;52.062;4.508;2023-05-16T14:44:58;2.20;;;0.40;;
72728;SDS011;60843;52.062;4.508;2023-05-16T14:47:23;0.20;;;0.20;;
72728;SDS011;60843;52.062;4.508;2023-05-16T14:49:49;2.10;;;0.47;;
72728;SDS011;60843;52.062;4.508;2023-05-16T14:52:14;2.00;;;0.25;;
72728;SDS011;60843;52.062;4.508;2023-05-16T14:54:39;0.93;;;0.40;;
72728;SDS011;60843;52.062;4.508;2023-05-16T14:57:05;1.98;;;0.40;;
72728;SDS011;60843;52.062;4.508;2023-05-16T14:59:32;0.32;;;0.30;;
72728;SDS011;60843;52.062;4.508;2023-05-16T15:01:57;1.48;;;0.50;;
72728;SDS011;60843;52.062;4.508;2023-05-16T15:04:24;0.50;;;0.30;;
72728;SDS011;60843;52.062;4.508;2023-05-16T15:06:51;2.63;;;0.60;;
72728;SDS011;60843;52.062;4.508;2023-05-16T15:09:16;1.73;;;0.53;;
72728;SDS011;60843;52.062;4.508;2023-05-16T15:11:42;1.75;;;0.60;;